sensor_id;sensor_type;location;lat;lon;timestamp;P1;durP1;ratioP1;P2;durP2;ratioP2
68825;SDS011;55841;53.392;10.086;2022-12-07T00:01:25;20.73;;;7.93;;
68825;SDS011;55841;53.392;10.086;2022-12-07T00:03:54;21.45;;;8.82;;
68825;SDS011;55841;53.392;10.086;2022-12-07T00:06:21;21.00;;;7.82;;
68825;SDS011;55841;53.392;10.086;2022-12-07T00:08:46;20.13;;;8.00;;
68825;SDS011;55841;53.392;10.086;2022-12-07T00:11:16;19.55;;;8.13;;
68825;SDS011;55841;53.392;10.086;2022-12-07T00:13:43;19.80;;;7.97;;
68825;SDS011;55841;53.392;10.086;2022-12-07T00:16:12;20.02;;;7.95;;
68825;SDS011;55841;53.392;10.086;2022-12-07T00:18:42;21.50;;;7.85;;
68825;SDS011;55841;53.392;10.086;2022-12-07T00:21:13;21.13;;;8.20;;
68825;SDS011;55841;53.392;10.086;2022-12-07T00:23:49;20.83;;;8.85;;
68825;SDS011;55841;53.392;10.086;2022-12-07T00:26:20;19.05;;;8.75;;
68825;SDS011;55841;53.392;10.086;2022-12-07T00:28:51;19.52;;;7.65;;
68825;SDS011;55841;53.392;10.086;2022-12-07T00:31:19;19.48;;;7.65;;
68825;SDS011;55841;53.392;10.086;2022-12-07T00:33:46;19.70;;;7.47;;
68825;SDS011;55841;53.392;10.086;2022-12-07T00:36:13;19.83;;;7.60;;
68825;SDS011;55841;53.392;10.086;2022-12-07T00:38:40;20.15;;;7.47;;
68825;SDS011;55841;53.392;10.086;2022-12-07T00:41:09;19.67;;;8.02;;
68825;SDS011;55841;53.392;10.086;2022-12-07T00:43:36;18.75;;;7.50;;
68825;SDS011;55841;53.392;10.086;2022-12-07T00:46:02;18.38;;;6.95;;
68825;SDS011;55841;53.392;10.086;2022-12-07T00:48:28;19.98;;;6.97;;
68825;SDS011;55841;53.392;10.086;2022-12-07T00:50:54;17.38;;;7.63;;
68825;SDS011;55841;53.392;10.086;2022-12-07T00:53:20;17.15;;;6.40;;
68825;SDS011;55841;53.392;10.086;2022-12-07T00:55:45;17.02;;;7.10;;
68825;SDS011;55841;53.392;10.086;2022-12-07T00:58:11;16.25;;;6.72;;
68825;SDS011;55841;53.392;10.086;2022-12-07T01:00:38;17.13;;;6.43;;
68825;SDS011;55841;53.392;10.086;2022-12-07T01:03:05;15.75;;;6.18;;
68825;SDS011;55841;53.392;10.086;2022-12-07T01:05:33;17.08;;;6.25;;
68825;SDS011;55841;53.392;10.086;2022-12-07T01:07:58;15.65;;;6.25;;
68825;SDS011;55841;53.392;10.086;2022-12-07T01:10:24;17.17;;;6.15;;
68825;SDS011;55841;53.392;10.086;2022-12-07T01:12:50;15.15;;;6.05;;
68825;SDS011;55841;53.392;10.086;2022-12-07T01:15:15;15.65;;;5.60;;
68825;SDS011;55841;53.392;10.086;2022-12-07T01:17:41;17.60;;;6.18;;
68825;SDS011;55841;53.392;10.086;2022-12-07T01:20:06;16.10;;;6.63;;
68825;SDS011;55841;53.392;10.086;2022-12-07T01:22:36;17.00;;;6.25;;
68825;SDS011;55841;53.392;10.086;2022-12-07T01:25:03;17.25;;;6.82;;
68825;SDS011;55841;53.392;10.086;2022-12-07T01:27:29;19.90;;;6.70;;
68825;SDS011;55841;53.392;10.086;2022-12-07T01:29:55;17.25;;;6.72;;
68825;SDS011;55841;53.392;10.086;2022-12-07T01:32:20;15.60;;;5.35;;
68825;SDS011;55841;53.392;10.086;2022-12-07T01:34:47;18.83;;;6.82;;
68825;SDS011;55841;53.392;10.086;2022-12-07T01:37:13;17.70;;;6.45;;
68825;SDS011;55841;53.392;10.086;2022-12-07T01:39:38;16.10;;;6.25;;
68825;SDS011;55841;53.392;10.086;2022-12-07T01:42:04;17.38;;;6.50;;
68825;SDS011;55841;53.392;10.086;2022-12-07T01:44:30;16.75;;;6.20;;
68825;SDS011;55841;53.392;10.086;2022-12-07T01:46:56;18.30;;;6.68;;
68825;SDS011;55841;53.392;10.086;2022-12-07T01:49:37;19.60;;;6.05;;
68825;SDS011;55841;53.392;10.086;2022-12-07T01:54:45;14.75;;;5.15;;
68825;SDS011;55841;53.392;10.086;2022-12-07T01:57:12;16.95;;;5.40;;
68825;SDS011;55841;53.392;10.086;2022-12-07T01:59:39;15.50;;;5.70;;
68825;SDS011;55841;53.392;10.086;2022-12-07T02:02:08;11.82;;;4.20;;
68825;SDS011;55841;53.392;10.086;2022-12-07T02:04:41;13.38;;;5.18;;
68825;SDS011;55841;53.392;10.086;2022-12-07T02:07:07;12.15;;;3.90;;
68825;SDS011;55841;53.392;10.086;2022-12-07T02:09:33;13.32;;;4.40;;
68825;SDS011;55841;53.392;10.086;2022-12-07T02:11:59;14.02;;;4.88;;
68825;SDS011;55841;53.392;10.086;2022-12-07T02:14:24;14.80;;;4.05;;
68825;SDS011;55841;53.392;10.086;2022-12-07T02:19:40;13.43;;;4.53;;
68825;SDS011;55841;53.392;10.086;2022-12-07T02:28:19;12.50;;;4.57;;
68825;SDS011;55841;53.392;10.086;2022-12-07T02:30:57;13.07;;;3.78;;
68825;SDS011;55841;53.392;10.086;2022-12-07T02:33:30;15.23;;;4.50;;
68825;SDS011;55841;53.392;10.086;2022-12-07T02:36:45;11.55;;;4.15;;
68825;SDS011;55841;53.392;10.086;2022-12-07T02:39:00;13.98;;;4.20;;
68825;SDS011;55841;53.392;10.086;2022-12-07T02:41:36;14.77;;;4.45;;
68825;SDS011;55841;53.392;10.086;2022-12-07T02:44:10;11.68;;;3.63;;
68825;SDS011;55841;53.392;10.086;2022-12-07T02:46:42;9.73;;;2.85;;
68825;SDS011;55841;53.392;10.086;2022-12-07T02:49:15;11.15;;;3.63;;
68825;SDS011;55841;53.392;10.086;2022-12-07T02:51:42;12.30;;;3.83;;
68825;SDS011;55841;53.392;10.086;2022-12-07T02:54:14;9.55;;;2.90;;
68825;SDS011;55841;53.392;10.086;2022-12-07T02:56:48;11.77;;;3.50;;
68825;SDS011;55841;53.392;10.086;2022-12-07T02:59:56;10.20;;;3.20;;
68825;SDS011;55841;53.392;10.086;2022-12-07T03:05:26;9.38;;;3.20;;
68825;SDS011;55841;53.392;10.086;2022-12-07T03:13:12;10.27;;;2.60;;
68825;SDS011;55841;53.392;10.086;2022-12-07T03:18:16;8.70;;;2.58;;
68825;SDS011;55841;53.392;10.086;2022-12-07T03:20:45;9.00;;;2.60;;
68825;SDS011;55841;53.392;10.086;2022-12-07T03:23:13;9.90;;;2.28;;
68825;SDS011;55841;53.392;10.086;2022-12-07T03:25:43;8.45;;;2.22;;
68825;SDS011;55841;53.392;10.086;2022-12-07T03:28:12;11.98;;;2.42;;
68825;SDS011;55841;53.392;10.086;2022-12-07T03:30:42;8.63;;;2.70;;
68825;SDS011;55841;53.392;10.086;2022-12-07T03:33:39;8.85;;;2.40;;
68825;SDS011;55841;53.392;10.086;2022-12-07T03:36:08;10.23;;;2.25;;
68825;SDS011;55841;53.392;10.086;2022-12-07T03:38:42;7.32;;;2.30;;
68825;SDS011;55841;53.392;10.086;2022-12-07T03:41:16;8.40;;;2.30;;
68825;SDS011;55841;53.392;10.086;2022-12-07T03:48:54;4.32;;;1.30;;
68825;SDS011;55841;53.392;10.086;2022-12-07T03:56:51;8.00;;;1.98;;
68825;SDS011;55841;53.392;10.086;2022-12-07T03:59:18;5.10;;;1.58;;
68825;SDS011;55841;53.392;10.086;2022-12-07T04:01:47;6.35;;;1.60;;
68825;SDS011;55841;53.392;10.086;2022-12-07T04:04:17;10.50;;;2.22;;
68825;SDS011;55841;53.392;10.086;2022-12-07T04:06:43;6.75;;;1.90;;
68825;SDS011;55841;53.392;10.086;2022-12-07T04:09:08;7.45;;;2.05;;
68825;SDS011;55841;53.392;10.086;2022-12-07T04:11:34;6.13;;;1.80;;
68825;SDS011;55841;53.392;10.086;2022-12-07T04:13:59;8.18;;;2.38;;
68825;SDS011;55841;53.392;10.086;2022-12-07T04:16:25;8.75;;;2.10;;
68825;SDS011;55841;53.392;10.086;2022-12-07T04:18:50;6.72;;;1.60;;
68825;SDS011;55841;53.392;10.086;2022-12-07T04:21:16;7.15;;;1.92;;
68825;SDS011;55841;53.392;10.086;2022-12-07T04:23:41;5.07;;;1.35;;
68825;SDS011;55841;53.392;10.086;2022-12-07T04:26:07;7.78;;;1.70;;
68825;SDS011;55841;53.392;10.086;2022-12-07T04:28:32;7.43;;;1.65;;
68825;SDS011;55841;53.392;10.086;2022-12-07T04:30:58;6.20;;;1.70;;
68825;SDS011;55841;53.392;10.086;2022-12-07T04:33:23;5.93;;;1.50;;
68825;SDS011;55841;53.392;10.086;2022-12-07T04:35:49;7.32;;;1.70;;
68825;SDS011;55841;53.392;10.086;2022-12-07T04:38:14;5.10;;;1.30;;
68825;SDS011;55841;53.392;10.086;2022-12-07T04:40:40;6.03;;;1.58;;
68825;SDS011;55841;53.392;10.086;2022-12-07T04:43:05;6.07;;;1.60;;
68825;SDS011;55841;53.392;10.086;2022-12-07T04:45:31;3.92;;;1.35;;
68825;SDS011;55841;53.392;10.086;2022-12-07T04:47:56;7.57;;;1.48;;
68825;SDS011;55841;53.392;10.086;2022-12-07T04:50:21;4.78;;;1.52;;
68825;SDS011;55841;53.392;10.086;2022-12-07T04:52:47;6.82;;;1.42;;
68825;SDS011;55841;53.392;10.086;2022-12-07T04:55:12;5.03;;;1.50;;
68825;SDS011;55841;53.392;10.086;2022-12-07T04:57:38;5.25;;;1.45;;
68825;SDS011;55841;53.392;10.086;2022-12-07T05:00:04;5.95;;;1.50;;
68825;SDS011;55841;53.392;10.086;2022-12-07T05:02:30;6.20;;;1.40;;
68825;SDS011;55841;53.392;10.086;2022-12-07T05:04:55;3.95;;;1.38;;
68825;SDS011;55841;53.392;10.086;2022-12-07T05:07:21;6.30;;;1.52;;
68825;SDS011;55841;53.392;10.086;2022-12-07T05:09:46;5.78;;;1.55;;
68825;SDS011;55841;53.392;10.086;2022-12-07T05:12:12;5.93;;;1.40;;
68825;SDS011;55841;53.392;10.086;2022-12-07T05:14:37;4.88;;;1.55;;
68825;SDS011;55841;53.392;10.086;2022-12-07T05:17:03;5.60;;;1.40;;
68825;SDS011;55841;53.392;10.086;2022-12-07T05:19:28;5.43;;;1.50;;
68825;SDS011;55841;53.392;10.086;2022-12-07T05:21:53;6.65;;;1.40;;
68825;SDS011;55841;53.392;10.086;2022-12-07T05:24:19;5.60;;;1.65;;
68825;SDS011;55841;53.392;10.086;2022-12-07T05:26:45;5.10;;;1.60;;
68825;SDS011;55841;53.392;10.086;2022-12-07T05:29:12;4.57;;;1.30;;
68825;SDS011;55841;53.392;10.086;2022-12-07T05:31:38;7.20;;;1.70;;
68825;SDS011;55841;53.392;10.086;2022-12-07T05:34:04;5.90;;;1.70;;
68825;SDS011;55841;53.392;10.086;2022-12-07T05:36:29;8.32;;;1.60;;
68825;SDS011;55841;53.392;10.086;2022-12-07T05:38:55;5.30;;;1.60;;
68825;SDS011;55841;53.392;10.086;2022-12-07T05:41:20;6.20;;;1.77;;
68825;SDS011;55841;53.392;10.086;2022-12-07T05:43:46;6.20;;;1.77;;
68825;SDS011;55841;53.392;10.086;2022-12-07T05:46:11;7.25;;;1.73;;
68825;SDS011;55841;53.392;10.086;2022-12-07T05:48:37;5.07;;;1.50;;
68825;SDS011;55841;53.392;10.086;2022-12-07T05:51:02;5.20;;;1.70;;
68825;SDS011;55841;53.392;10.086;2022-12-07T05:53:28;5.63;;;1.60;;
68825;SDS011;55841;53.392;10.086;2022-12-07T05:55:53;8.77;;;2.10;;
68825;SDS011;55841;53.392;10.086;2022-12-07T05:58:28;4.85;;;1.25;;
68825;SDS011;55841;53.392;10.086;2022-12-07T06:00:56;7.25;;;1.63;;
68825;SDS011;55841;53.392;10.086;2022-12-07T06:03:22;4.78;;;1.33;;
68825;SDS011;55841;53.392;10.086;2022-12-07T06:05:48;5.68;;;1.70;;
68825;SDS011;55841;53.392;10.086;2022-12-07T06:08:13;7.88;;;1.98;;
68825;SDS011;55841;53.392;10.086;2022-12-07T06:10:39;4.50;;;1.63;;
68825;SDS011;55841;53.392;10.086;2022-12-07T06:13:04;6.75;;;1.95;;
68825;SDS011;55841;53.392;10.086;2022-12-07T06:15:29;6.55;;;1.50;;
68825;SDS011;55841;53.392;10.086;2022-12-07T06:17:55;7.57;;;1.90;;
68825;SDS011;55841;53.392;10.086;2022-12-07T06:20:20;7.97;;;1.70;;
68825;SDS011;55841;53.392;10.086;2022-12-07T06:22:46;5.20;;;1.52;;
68825;SDS011;55841;53.392;10.086;2022-12-07T06:25:12;6.50;;;1.88;;
68825;SDS011;55841;53.392;10.086;2022-12-07T06:27:37;7.97;;;2.03;;
68825;SDS011;55841;53.392;10.086;2022-12-07T06:30:03;5.82;;;1.85;;
68825;SDS011;55841;53.392;10.086;2022-12-07T06:32:29;9.18;;;1.70;;
68825;SDS011;55841;53.392;10.086;2022-12-07T06:34:55;5.47;;;1.77;;
68825;SDS011;55841;53.392;10.086;2022-12-07T06:37:20;6.05;;;1.75;;
68825;SDS011;55841;53.392;10.086;2022-12-07T06:39:46;5.13;;;1.52;;
68825;SDS011;55841;53.392;10.086;2022-12-07T06:42:11;6.80;;;1.63;;
68825;SDS011;55841;53.392;10.086;2022-12-07T06:44:39;6.57;;;1.92;;
68825;SDS011;55841;53.392;10.086;2022-12-07T06:47:05;6.90;;;2.20;;
68825;SDS011;55841;53.392;10.086;2022-12-07T06:49:30;6.32;;;1.92;;
68825;SDS011;55841;53.392;10.086;2022-12-07T06:51:59;6.07;;;1.90;;
68825;SDS011;55841;53.392;10.086;2022-12-07T06:54:24;8.32;;;1.58;;
68825;SDS011;55841;53.392;10.086;2022-12-07T06:56:50;7.95;;;1.73;;
68825;SDS011;55841;53.392;10.086;2022-12-07T06:59:15;5.80;;;1.77;;
68825;SDS011;55841;53.392;10.086;2022-12-07T07:01:41;11.07;;;2.13;;
68825;SDS011;55841;53.392;10.086;2022-12-07T07:04:09;6.20;;;1.98;;
68825;SDS011;55841;53.392;10.086;2022-12-07T07:06:34;9.30;;;1.88;;
68825;SDS011;55841;53.392;10.086;2022-12-07T07:09:00;7.15;;;2.10;;
68825;SDS011;55841;53.392;10.086;2022-12-07T07:11:25;7.80;;;1.50;;
68825;SDS011;55841;53.392;10.086;2022-12-07T07:13:54;3.75;;;1.50;;
68825;SDS011;55841;53.392;10.086;2022-12-07T07:16:19;7.10;;;1.67;;
68825;SDS011;55841;53.392;10.086;2022-12-07T07:18:45;6.50;;;1.58;;
68825;SDS011;55841;53.392;10.086;2022-12-07T07:21:11;4.40;;;1.55;;
68825;SDS011;55841;53.392;10.086;2022-12-07T07:23:36;7.80;;;2.20;;
68825;SDS011;55841;53.392;10.086;2022-12-07T07:26:02;7.68;;;1.60;;
68825;SDS011;55841;53.392;10.086;2022-12-07T07:28:27;6.95;;;1.70;;
68825;SDS011;55841;53.392;10.086;2022-12-07T07:30:53;8.98;;;1.80;;
68825;SDS011;55841;53.392;10.086;2022-12-07T07:33:18;7.05;;;1.85;;
68825;SDS011;55841;53.392;10.086;2022-12-07T07:35:44;6.55;;;1.63;;
68825;SDS011;55841;53.392;10.086;2022-12-07T07:38:09;5.53;;;1.65;;
68825;SDS011;55841;53.392;10.086;2022-12-07T07:40:35;2.97;;;1.15;;
68825;SDS011;55841;53.392;10.086;2022-12-07T07:43:01;9.63;;;1.80;;
68825;SDS011;55841;53.392;10.086;2022-12-07T07:45:26;7.80;;;1.58;;
68825;SDS011;55841;53.392;10.086;2022-12-07T07:47:52;5.40;;;1.73;;
68825;SDS011;55841;53.392;10.086;2022-12-07T07:50:18;6.00;;;1.67;;
68825;SDS011;55841;53.392;10.086;2022-12-07T07:52:45;5.63;;;1.60;;
68825;SDS011;55841;53.392;10.086;2022-12-07T07:55:10;6.95;;;1.60;;
68825;SDS011;55841;53.392;10.086;2022-12-07T07:57:37;6.05;;;1.55;;
68825;SDS011;55841;53.392;10.086;2022-12-07T08:00:04;3.95;;;1.40;;
68825;SDS011;55841;53.392;10.086;2022-12-07T08:02:38;6.53;;;1.70;;
68825;SDS011;55841;53.392;10.086;2022-12-07T08:05:04;3.78;;;1.30;;
68825;SDS011;55841;53.392;10.086;2022-12-07T08:07:30;5.65;;;1.42;;
68825;SDS011;55841;53.392;10.086;2022-12-07T08:09:55;3.67;;;1.20;;
68825;SDS011;55841;53.392;10.086;2022-12-07T08:12:21;5.13;;;1.63;;
68825;SDS011;55841;53.392;10.086;2022-12-07T08:14:46;5.40;;;1.58;;
68825;SDS011;55841;53.392;10.086;2022-12-07T08:17:12;6.90;;;1.70;;
68825;SDS011;55841;53.392;10.086;2022-12-07T08:19:37;5.82;;;1.58;;
68825;SDS011;55841;53.392;10.086;2022-12-07T08:22:03;3.47;;;1.42;;
68825;SDS011;55841;53.392;10.086;2022-12-07T08:24:28;5.55;;;1.60;;
68825;SDS011;55841;53.392;10.086;2022-12-07T08:26:54;7.43;;;1.80;;
68825;SDS011;55841;53.392;10.086;2022-12-07T08:29:19;3.97;;;1.48;;
68825;SDS011;55841;53.392;10.086;2022-12-07T08:31:45;6.97;;;1.73;;
68825;SDS011;55841;53.392;10.086;2022-12-07T08:34:11;6.43;;;1.67;;
68825;SDS011;55841;53.392;10.086;2022-12-07T08:36:37;4.22;;;1.30;;
68825;SDS011;55841;53.392;10.086;2022-12-07T08:39:02;6.95;;;1.52;;
68825;SDS011;55841;53.392;10.086;2022-12-07T08:41:28;5.72;;;1.65;;
68825;SDS011;55841;53.392;10.086;2022-12-07T08:43:54;5.53;;;1.70;;
68825;SDS011;55841;53.392;10.086;2022-12-07T08:46:21;6.20;;;1.70;;
68825;SDS011;55841;53.392;10.086;2022-12-07T08:51:37;6.63;;;1.73;;
68825;SDS011;55841;53.392;10.086;2022-12-07T08:54:07;6.45;;;1.88;;
68825;SDS011;55841;53.392;10.086;2022-12-07T08:56:36;5.10;;;1.67;;
68825;SDS011;55841;53.392;10.086;2022-12-07T08:59:02;9.77;;;1.60;;
68825;SDS011;55841;53.392;10.086;2022-12-07T09:01:29;7.53;;;1.42;;
68825;SDS011;55841;53.392;10.086;2022-12-07T09:03:54;5.85;;;1.60;;
68825;SDS011;55841;53.392;10.086;2022-12-07T09:06:20;6.32;;;1.70;;
68825;SDS011;55841;53.392;10.086;2022-12-07T09:08:49;3.60;;;1.40;;
68825;SDS011;55841;53.392;10.086;2022-12-07T09:11:18;4.15;;;1.42;;
68825;SDS011;55841;53.392;10.086;2022-12-07T09:13:44;1.98;;;1.02;;
68825;SDS011;55841;53.392;10.086;2022-12-07T09:16:09;5.00;;;1.77;;
68825;SDS011;55841;53.392;10.086;2022-12-07T09:18:35;4.47;;;1.77;;
68825;SDS011;55841;53.392;10.086;2022-12-07T09:21:01;5.20;;;1.50;;
68825;SDS011;55841;53.392;10.086;2022-12-07T09:23:26;6.65;;;1.50;;
68825;SDS011;55841;53.392;10.086;2022-12-07T09:25:54;6.80;;;1.70;;
68825;SDS011;55841;53.392;10.086;2022-12-07T09:28:19;3.75;;;1.25;;
68825;SDS011;55841;53.392;10.086;2022-12-07T09:30:45;4.47;;;1.30;;
68825;SDS011;55841;53.392;10.086;2022-12-07T09:38:02;4.70;;;1.15;;
68825;SDS011;55841;53.392;10.086;2022-12-07T09:40:28;4.82;;;1.42;;
68825;SDS011;55841;53.392;10.086;2022-12-07T09:42:54;7.20;;;1.50;;
68825;SDS011;55841;53.392;10.086;2022-12-07T09:45:24;3.53;;;1.05;;
68825;SDS011;55841;53.392;10.086;2022-12-07T09:48:00;3.90;;;1.17;;
68825;SDS011;55841;53.392;10.086;2022-12-07T09:50:28;5.47;;;1.52;;
68825;SDS011;55841;53.392;10.086;2022-12-07T09:52:54;9.85;;;1.52;;
68825;SDS011;55841;53.392;10.086;2022-12-07T09:55:31;5.70;;;1.50;;
68825;SDS011;55841;53.392;10.086;2022-12-07T09:57:58;8.73;;;1.65;;
68825;SDS011;55841;53.392;10.086;2022-12-07T10:00:24;4.45;;;1.17;;
68825;SDS011;55841;53.392;10.086;2022-12-07T10:05:27;8.27;;;1.90;;
68825;SDS011;55841;53.392;10.086;2022-12-07T10:07:55;4.50;;;1.52;;
68825;SDS011;55841;53.392;10.086;2022-12-07T10:10:25;6.40;;;1.20;;
68825;SDS011;55841;53.392;10.086;2022-12-07T10:13:02;3.40;;;0.90;;
68825;SDS011;55841;53.392;10.086;2022-12-07T10:15:40;3.95;;;0.82;;
68825;SDS011;55841;53.392;10.086;2022-12-07T10:18:25;4.97;;;1.30;;
68825;SDS011;55841;53.392;10.086;2022-12-07T10:21:00;2.15;;;0.95;;
68825;SDS011;55841;53.392;10.086;2022-12-07T10:23:58;2.63;;;0.73;;
68825;SDS011;55841;53.392;10.086;2022-12-07T10:28:52;3.65;;;1.02;;
68825;SDS011;55841;53.392;10.086;2022-12-07T10:31:18;1.48;;;0.30;;
68825;SDS011;55841;53.392;10.086;2022-12-07T10:33:56;1.38;;;0.50;;
68825;SDS011;55841;53.392;10.086;2022-12-07T10:36:23;0.98;;;0.50;;
68825;SDS011;55841;53.392;10.086;2022-12-07T10:39:13;3.88;;;0.77;;
68825;SDS011;55841;53.392;10.086;2022-12-07T10:41:52;7.95;;;0.80;;
68825;SDS011;55841;53.392;10.086;2022-12-07T10:44:29;6.57;;;0.88;;
68825;SDS011;55841;53.392;10.086;2022-12-07T10:50:02;3.03;;;0.65;;
68825;SDS011;55841;53.392;10.086;2022-12-07T11:00:37;3.55;;;0.68;;
68825;SDS011;55841;53.392;10.086;2022-12-07T11:05:42;4.85;;;0.75;;
68825;SDS011;55841;53.392;10.086;2022-12-07T11:08:32;5.93;;;1.20;;
68825;SDS011;55841;53.392;10.086;2022-12-07T11:22:13;5.85;;;1.08;;
68825;SDS011;55841;53.392;10.086;2022-12-07T11:25:13;6.28;;;1.20;;
68825;SDS011;55841;53.392;10.086;2022-12-07T11:28:26;5.35;;;1.10;;
68825;SDS011;55841;53.392;10.086;2022-12-07T11:33:44;9.45;;;1.35;;
68825;SDS011;55841;53.392;10.086;2022-12-07T11:38:57;7.35;;;1.15;;
68825;SDS011;55841;53.392;10.086;2022-12-07T11:41:29;3.53;;;0.90;;
68825;SDS011;55841;53.392;10.086;2022-12-07T11:46:48;4.40;;;1.00;;
68825;SDS011;55841;53.392;10.086;2022-12-07T11:49:40;6.82;;;0.93;;
68825;SDS011;55841;53.392;10.086;2022-12-07T11:52:26;8.80;;;1.40;;
68825;SDS011;55841;53.392;10.086;2022-12-07T11:55:21;5.47;;;1.17;;
68825;SDS011;55841;53.392;10.086;2022-12-07T11:58:00;8.48;;;1.40;;
68825;SDS011;55841;53.392;10.086;2022-12-07T12:00:34;7.43;;;1.63;;
68825;SDS011;55841;53.392;10.086;2022-12-07T12:03:07;8.10;;;1.48;;
68825;SDS011;55841;53.392;10.086;2022-12-07T12:05:39;5.93;;;1.20;;
68825;SDS011;55841;53.392;10.086;2022-12-07T12:08:11;8.57;;;1.52;;
68825;SDS011;55841;53.392;10.086;2022-12-07T12:10:58;6.05;;;0.85;;
68825;SDS011;55841;53.392;10.086;2022-12-07T12:13:38;3.70;;;0.80;;
68825;SDS011;55841;53.392;10.086;2022-12-07T12:18:58;2.40;;;0.60;;
68825;SDS011;55841;53.392;10.086;2022-12-07T12:21:42;6.57;;;1.40;;
68825;SDS011;55841;53.392;10.086;2022-12-07T12:24:22;3.47;;;0.85;;
68825;SDS011;55841;53.392;10.086;2022-12-07T12:26:52;3.20;;;0.98;;
68825;SDS011;55841;53.392;10.086;2022-12-07T12:29:26;7.35;;;0.98;;
68825;SDS011;55841;53.392;10.086;2022-12-07T12:42:54;6.07;;;1.85;;
68825;SDS011;55841;53.392;10.086;2022-12-07T12:47:52;7.28;;;1.70;;
68825;SDS011;55841;53.392;10.086;2022-12-07T12:52:48;8.30;;;1.70;;
68825;SDS011;55841;53.392;10.086;2022-12-07T12:58:28;6.85;;;1.45;;
68825;SDS011;55841;53.392;10.086;2022-12-07T13:03:59;7.70;;;1.80;;
68825;SDS011;55841;53.392;10.086;2022-12-07T13:08:51;10.00;;;1.70;;
68825;SDS011;55841;53.392;10.086;2022-12-07T13:13:56;8.57;;;1.80;;
68825;SDS011;55841;53.392;10.086;2022-12-07T13:16:57;7.70;;;1.80;;
68825;SDS011;55841;53.392;10.086;2022-12-07T13:20:05;8.05;;;1.30;;
68825;SDS011;55841;53.392;10.086;2022-12-07T13:27:42;6.22;;;1.42;;
68825;SDS011;55841;53.392;10.086;2022-12-07T13:30:19;6.10;;;1.73;;
68825;SDS011;55841;53.392;10.086;2022-12-07T13:32:53;10.15;;;2.08;;
68825;SDS011;55841;53.392;10.086;2022-12-07T13:35:34;4.70;;;1.38;;
68825;SDS011;55841;53.392;10.086;2022-12-07T13:38:01;4.22;;;1.00;;
68825;SDS011;55841;53.392;10.086;2022-12-07T13:40:30;6.55;;;1.15;;
68825;SDS011;55841;53.392;10.086;2022-12-07T13:43:00;7.65;;;1.25;;
68825;SDS011;55841;53.392;10.086;2022-12-07T13:45:37;7.47;;;1.80;;
68825;SDS011;55841;53.392;10.086;2022-12-07T13:48:03;12.45;;;2.30;;
68825;SDS011;55841;53.392;10.086;2022-12-07T13:50:31;5.70;;;1.40;;
68825;SDS011;55841;53.392;10.086;2022-12-07T13:52:57;7.03;;;1.38;;
68825;SDS011;55841;53.392;10.086;2022-12-07T13:55:24;8.30;;;1.30;;
68825;SDS011;55841;53.392;10.086;2022-12-07T13:57:52;5.25;;;1.10;;
68825;SDS011;55841;53.392;10.086;2022-12-07T14:00:26;5.57;;;1.25;;
68825;SDS011;55841;53.392;10.086;2022-12-07T14:03:01;7.80;;;1.10;;
68825;SDS011;55841;53.392;10.086;2022-12-07T14:05:36;6.10;;;1.13;;
68825;SDS011;55841;53.392;10.086;2022-12-07T14:08:05;7.43;;;1.27;;
68825;SDS011;55841;53.392;10.086;2022-12-07T14:10:40;5.80;;;1.20;;
68825;SDS011;55841;53.392;10.086;2022-12-07T14:15:59;8.75;;;1.65;;
68825;SDS011;55841;53.392;10.086;2022-12-07T14:18:36;6.72;;;1.23;;
68825;SDS011;55841;53.392;10.086;2022-12-07T14:21:22;5.13;;;1.25;;
68825;SDS011;55841;53.392;10.086;2022-12-07T14:26:43;5.47;;;1.10;;
68825;SDS011;55841;53.392;10.086;2022-12-07T14:29:20;10.60;;;2.88;;
68825;SDS011;55841;53.392;10.086;2022-12-07T14:31:52;5.25;;;1.05;;
68825;SDS011;55841;53.392;10.086;2022-12-07T14:34:21;9.73;;;3.17;;
68825;SDS011;55841;53.392;10.086;2022-12-07T14:36:47;5.75;;;1.40;;
68825;SDS011;55841;53.392;10.086;2022-12-07T14:39:12;11.30;;;2.70;;
68825;SDS011;55841;53.392;10.086;2022-12-07T14:41:38;6.65;;;1.75;;
68825;SDS011;55841;53.392;10.086;2022-12-07T14:44:08;6.70;;;1.33;;
68825;SDS011;55841;53.392;10.086;2022-12-07T14:46:36;9.63;;;2.67;;
68825;SDS011;55841;53.392;10.086;2022-12-07T14:49:01;6.80;;;1.55;;
68825;SDS011;55841;53.392;10.086;2022-12-07T14:51:27;5.43;;;1.23;;
68825;SDS011;55841;53.392;10.086;2022-12-07T14:53:52;7.60;;;1.88;;
68825;SDS011;55841;53.392;10.086;2022-12-07T14:56:18;11.73;;;3.10;;
68825;SDS011;55841;53.392;10.086;2022-12-07T14:58:44;7.25;;;1.45;;
68825;SDS011;55841;53.392;10.086;2022-12-07T15:01:09;12.35;;;2.85;;
68825;SDS011;55841;53.392;10.086;2022-12-07T15:03:34;12.75;;;2.95;;
68825;SDS011;55841;53.392;10.086;2022-12-07T15:06:00;10.45;;;2.47;;
68825;SDS011;55841;53.392;10.086;2022-12-07T15:08:26;11.40;;;2.10;;
68825;SDS011;55841;53.392;10.086;2022-12-07T15:10:52;7.82;;;1.95;;
68825;SDS011;55841;53.392;10.086;2022-12-07T15:13:17;6.32;;;1.67;;
68825;SDS011;55841;53.392;10.086;2022-12-07T15:15:43;7.47;;;1.67;;
68825;SDS011;55841;53.392;10.086;2022-12-07T15:18:08;5.88;;;1.90;;
68825;SDS011;55841;53.392;10.086;2022-12-07T15:20:34;9.65;;;2.53;;
68825;SDS011;55841;53.392;10.086;2022-12-07T15:22:59;15.00;;;3.58;;
68825;SDS011;55841;53.392;10.086;2022-12-07T15:25:25;18.40;;;4.53;;
68825;SDS011;55841;53.392;10.086;2022-12-07T15:27:50;13.57;;;3.55;;
68825;SDS011;55841;53.392;10.086;2022-12-07T15:30:16;12.45;;;2.63;;
68825;SDS011;55841;53.392;10.086;2022-12-07T15:32:41;9.15;;;2.15;;
68825;SDS011;55841;53.392;10.086;2022-12-07T15:35:07;7.82;;;1.70;;
68825;SDS011;55841;53.392;10.086;2022-12-07T15:37:33;4.38;;;1.60;;
68825;SDS011;55841;53.392;10.086;2022-12-07T15:39:58;7.32;;;1.83;;
68825;SDS011;55841;53.392;10.086;2022-12-07T15:42:24;9.20;;;1.55;;
68825;SDS011;55841;53.392;10.086;2022-12-07T15:44:49;8.63;;;1.70;;
68825;SDS011;55841;53.392;10.086;2022-12-07T15:47:15;7.93;;;1.80;;
68825;SDS011;55841;53.392;10.086;2022-12-07T15:49:40;9.63;;;1.90;;
68825;SDS011;55841;53.392;10.086;2022-12-07T15:52:06;6.05;;;1.73;;
68825;SDS011;55841;53.392;10.086;2022-12-07T15:54:31;8.77;;;2.03;;
68825;SDS011;55841;53.392;10.086;2022-12-07T15:56:57;6.78;;;1.98;;
68825;SDS011;55841;53.392;10.086;2022-12-07T15:59:23;11.63;;;3.72;;
68825;SDS011;55841;53.392;10.086;2022-12-07T16:01:48;11.77;;;3.60;;
68825;SDS011;55841;53.392;10.086;2022-12-07T16:04:14;17.02;;;5.57;;
68825;SDS011;55841;53.392;10.086;2022-12-07T16:06:40;18.55;;;6.22;;
68825;SDS011;55841;53.392;10.086;2022-12-07T16:09:05;17.23;;;5.28;;
68825;SDS011;55841;53.392;10.086;2022-12-07T16:11:31;14.57;;;4.20;;
68825;SDS011;55841;53.392;10.086;2022-12-07T16:13:57;14.98;;;4.13;;
68825;SDS011;55841;53.392;10.086;2022-12-07T16:16:22;18.88;;;6.53;;
68825;SDS011;55841;53.392;10.086;2022-12-07T16:18:48;16.88;;;6.20;;
68825;SDS011;55841;53.392;10.086;2022-12-07T16:26:07;11.57;;;2.80;;
68825;SDS011;55841;53.392;10.086;2022-12-07T16:28:37;6.93;;;2.15;;
68825;SDS011;55841;53.392;10.086;2022-12-07T16:31:03;6.53;;;1.70;;
68825;SDS011;55841;53.392;10.086;2022-12-07T16:33:30;7.65;;;1.90;;
68825;SDS011;55841;53.392;10.086;2022-12-07T16:35:56;6.47;;;2.17;;
68825;SDS011;55841;53.392;10.086;2022-12-07T16:38:23;8.32;;;2.38;;
68825;SDS011;55841;53.392;10.086;2022-12-07T16:40:48;9.95;;;2.40;;
68825;SDS011;55841;53.392;10.086;2022-12-07T16:43:14;10.63;;;3.00;;
68825;SDS011;55841;53.392;10.086;2022-12-07T16:45:39;10.07;;;3.00;;